sensor_id;sensor_type;location;lat;lon;timestamp;P1;durP1;ratioP1;P2;durP2;ratioP2
16906;SDS011;8570;52.380;4.654;2023-04-10T00:00:50;14.70;;;11.85;;
16906;SDS011;8570;52.380;4.654;2023-04-10T00:05:56;13.43;;;11.53;;
16906;SDS011;8570;52.380;4.654;2023-04-10T00:10:58;14.10;;;11.63;;
16906;SDS011;8570;52.380;4.654;2023-04-10T00:16:01;13.57;;;11.20;;
16906;SDS011;8570;52.380;4.654;2023-04-10T00:21:03;14.38;;;11.77;;
16906;SDS011;8570;52.380;4.654;2023-04-10T00:26:06;13.25;;;11.27;;
16906;SDS011;8570;52.380;4.654;2023-04-10T00:31:09;13.20;;;10.73;;
16906;SDS011;8570;52.380;4.654;2023-04-10T00:36:11;15.00;;;11.00;;
16906;SDS011;8570;52.380;4.654;2023-04-10T00:41:13;13.23;;;11.65;;
16906;SDS011;8570;52.380;4.654;2023-04-10T00:46:17;14.33;;;11.37;;
16906;SDS011;8570;52.380;4.654;2023-04-10T00:51:19;13.45;;;10.75;;
16906;SDS011;8570;52.380;4.654;2023-04-10T00:56:22;15.50;;;11.90;;
16906;SDS011;8570;52.380;4.654;2023-04-10T01:01:26;13.27;;;10.98;;
16906;SDS011;8570;52.380;4.654;2023-04-10T01:06:29;12.23;;;10.80;;
16906;SDS011;8570;52.380;4.654;2023-04-10T01:11:43;13.83;;;10.73;;
16906;SDS011;8570;52.380;4.654;2023-04-10T01:16:54;14.33;;;11.70;;
16906;SDS011;8570;52.380;4.654;2023-04-10T01:22:01;15.57;;;11.73;;
16906;SDS011;8570;52.380;4.654;2023-04-10T01:27:11;13.47;;;11.77;;
16906;SDS011;8570;52.380;4.654;2023-04-10T01:32:26;12.70;;;10.93;;
16906;SDS011;8570;52.380;4.654;2023-04-10T01:37:31;14.25;;;11.00;;
16906;SDS011;8570;52.380;4.654;2023-04-10T01:42:39;13.93;;;11.07;;
16906;SDS011;8570;52.380;4.654;2023-04-10T01:47:45;13.87;;;10.63;;
16906;SDS011;8570;52.380;4.654;2023-04-10T01:52:48;13.23;;;10.90;;
16906;SDS011;8570;52.380;4.654;2023-04-10T01:57:51;15.83;;;11.97;;
16906;SDS011;8570;52.380;4.654;2023-04-10T02:02:55;15.70;;;11.82;;
16906;SDS011;8570;52.380;4.654;2023-04-10T02:07:59;13.43;;;10.80;;
16906;SDS011;8570;52.380;4.654;2023-04-10T02:13:06;14.57;;;11.63;;
16906;SDS011;8570;52.380;4.654;2023-04-10T02:18:12;15.07;;;10.80;;
16906;SDS011;8570;52.380;4.654;2023-04-10T02:23:16;14.03;;;11.70;;
16906;SDS011;8570;52.380;4.654;2023-04-10T02:28:19;13.70;;;11.67;;
16906;SDS011;8570;52.380;4.654;2023-04-10T02:33:22;14.20;;;11.33;;
16906;SDS011;8570;52.380;4.654;2023-04-10T02:38:24;14.77;;;11.13;;
16906;SDS011;8570;52.380;4.654;2023-04-10T02:43:26;13.60;;;10.80;;
16906;SDS011;8570;52.380;4.654;2023-04-10T02:48:30;12.43;;;10.23;;
16906;SDS011;8570;52.380;4.654;2023-04-10T02:53:32;13.60;;;10.13;;
16906;SDS011;8570;52.380;4.654;2023-04-10T02:58:34;13.47;;;10.67;;
16906;SDS011;8570;52.380;4.654;2023-04-10T03:03:37;12.13;;;10.03;;
16906;SDS011;8570;52.380;4.654;2023-04-10T03:08:39;11.93;;;10.20;;
16906;SDS011;8570;52.380;4.654;2023-04-10T03:13:41;12.93;;;10.90;;
16906;SDS011;8570;52.380;4.654;2023-04-10T03:18:44;11.23;;;10.00;;
16906;SDS011;8570;52.380;4.654;2023-04-10T03:23:47;12.30;;;10.33;;
16906;SDS011;8570;52.380;4.654;2023-04-10T03:28:48;12.87;;;9.77;;
16906;SDS011;8570;52.380;4.654;2023-04-10T03:33:52;11.00;;;9.40;;
16906;SDS011;8570;52.380;4.654;2023-04-10T03:38:54;13.87;;;9.43;;
16906;SDS011;8570;52.380;4.654;2023-04-10T03:43:56;11.73;;;9.13;;
16906;SDS011;8570;52.380;4.654;2023-04-10T03:49:00;10.57;;;9.10;;
16906;SDS011;8570;52.380;4.654;2023-04-10T03:54:02;11.27;;;9.33;;
16906;SDS011;8570;52.380;4.654;2023-04-10T03:59:04;11.67;;;9.53;;
16906;SDS011;8570;52.380;4.654;2023-04-10T04:04:07;11.03;;;9.23;;
16906;SDS011;8570;52.380;4.654;2023-04-10T04:09:09;13.37;;;9.03;;
16906;SDS011;8570;52.380;4.654;2023-04-10T04:14:11;11.30;;;9.47;;
16906;SDS011;8570;52.380;4.654;2023-04-10T04:19:15;10.77;;;9.17;;
16906;SDS011;8570;52.380;4.654;2023-04-10T04:24:16;12.03;;;8.40;;
16906;SDS011;8570;52.380;4.654;2023-04-10T04:29:18;10.57;;;8.33;;
16906;SDS011;8570;52.380;4.654;2023-04-10T04:34:22;8.83;;;7.60;;
16906;SDS011;8570;52.380;4.654;2023-04-10T04:39:23;10.07;;;8.13;;
16906;SDS011;8570;52.380;4.654;2023-04-10T04:44:25;9.73;;;7.77;;
16906;SDS011;8570;52.380;4.654;2023-04-10T04:49:29;9.53;;;8.10;;
16906;SDS011;8570;52.380;4.654;2023-04-10T04:54:31;11.73;;;8.20;;
16906;SDS011;8570;52.380;4.654;2023-04-10T04:59:32;8.50;;;7.60;;
16906;SDS011;8570;52.380;4.654;2023-04-10T05:04:36;9.47;;;7.93;;
16906;SDS011;8570;52.380;4.654;2023-04-10T05:09:38;10.20;;;8.60;;
16906;SDS011;8570;52.380;4.654;2023-04-10T05:14:40;10.47;;;8.23;;
16906;SDS011;8570;52.380;4.654;2023-04-10T05:19:43;9.30;;;7.73;;
16906;SDS011;8570;52.380;4.654;2023-04-10T05:24:45;10.33;;;7.40;;
16906;SDS011;8570;52.380;4.654;2023-04-10T05:29:47;10.67;;;7.90;;
16906;SDS011;8570;52.380;4.654;2023-04-10T05:34:50;8.60;;;7.47;;
16906;SDS011;8570;52.380;4.654;2023-04-10T05:39:52;10.87;;;8.03;;
16906;SDS011;8570;52.380;4.654;2023-04-10T05:44:54;8.60;;;7.37;;
16906;SDS011;8570;52.380;4.654;2023-04-10T05:49:58;7.97;;;7.17;;
16906;SDS011;8570;52.380;4.654;2023-04-10T05:54:59;10.00;;;7.60;;
16906;SDS011;8570;52.380;4.654;2023-04-10T06:00:02;8.57;;;7.27;;
16906;SDS011;8570;52.380;4.654;2023-04-10T06:05:10;9.47;;;8.23;;
16906;SDS011;8570;52.380;4.654;2023-04-10T06:10:13;8.87;;;7.90;;
16906;SDS011;8570;52.380;4.654;2023-04-10T06:15:18;9.63;;;8.57;;
16906;SDS011;8570;52.380;4.654;2023-04-10T06:20:29;8.63;;;7.53;;
16906;SDS011;8570;52.380;4.654;2023-04-10T06:25:31;8.90;;;7.97;;
16906;SDS011;8570;52.380;4.654;2023-04-10T06:30:33;8.40;;;7.37;;
16906;SDS011;8570;52.380;4.654;2023-04-10T06:35:37;8.17;;;7.37;;
16906;SDS011;8570;52.380;4.654;2023-04-10T06:40:39;10.13;;;7.73;;
16906;SDS011;8570;52.380;4.654;2023-04-10T06:45:41;8.63;;;7.60;;
16906;SDS011;8570;52.380;4.654;2023-04-10T06:50:44;8.97;;;8.07;;
16906;SDS011;8570;52.380;4.654;2023-04-10T06:55:46;9.33;;;8.10;;
16906;SDS011;8570;52.380;4.654;2023-04-10T07:00:48;9.67;;;8.00;;
16906;SDS011;8570;52.380;4.654;2023-04-10T07:05:52;9.07;;;7.37;;
16906;SDS011;8570;52.380;4.654;2023-04-10T07:10:53;8.83;;;7.93;;
16906;SDS011;8570;52.380;4.654;2023-04-10T07:15:55;9.50;;;7.90;;
16906;SDS011;8570;52.380;4.654;2023-04-10T07:20:59;9.40;;;7.83;;
16906;SDS011;8570;52.380;4.654;2023-04-10T07:26:01;10.80;;;8.07;;
16906;SDS011;8570;52.380;4.654;2023-04-10T07:31:03;8.77;;;7.57;;
16906;SDS011;8570;52.380;4.654;2023-04-10T07:36:08;8.57;;;7.10;;
16906;SDS011;8570;52.380;4.654;2023-04-10T07:41:10;8.20;;;7.23;;
16906;SDS011;8570;52.380;4.654;2023-04-10T07:46:14;8.25;;;7.43;;
16906;SDS011;8570;52.380;4.654;2023-04-10T07:51:18;8.38;;;7.45;;
16906;SDS011;8570;52.380;4.654;2023-04-10T07:56:20;7.55;;;6.75;;
16906;SDS011;8570;52.380;4.654;2023-04-10T08:01:23;8.55;;;7.32;;
16906;SDS011;8570;52.380;4.654;2023-04-10T08:06:26;9.30;;;7.75;;
16906;SDS011;8570;52.380;4.654;2023-04-10T08:11:34;8.27;;;7.07;;
16906;SDS011;8570;52.380;4.654;2023-04-10T08:16:39;14.10;;;8.30;;
16906;SDS011;8570;52.380;4.654;2023-04-10T08:21:42;11.27;;;7.30;;
16906;SDS011;8570;52.380;4.654;2023-04-10T08:26:44;8.73;;;7.75;;
16906;SDS011;8570;52.380;4.654;2023-04-10T08:31:46;11.02;;;7.72;;
16906;SDS011;8570;52.380;4.654;2023-04-10T08:36:50;8.82;;;7.68;;
16906;SDS011;8570;52.380;4.654;2023-04-10T08:41:52;8.38;;;7.50;;
16906;SDS011;8570;52.380;4.654;2023-04-10T08:46:55;8.70;;;7.55;;
16906;SDS011;8570;52.380;4.654;2023-04-10T08:52:00;10.55;;;8.02;;
16906;SDS011;8570;52.380;4.654;2023-04-10T08:57:07;8.40;;;7.43;;
16906;SDS011;8570;52.380;4.654;2023-04-10T09:02:12;9.02;;;8.13;;
16906;SDS011;8570;52.380;4.654;2023-04-10T09:07:16;8.18;;;7.35;;
16906;SDS011;8570;52.380;4.654;2023-04-10T09:12:18;7.47;;;6.57;;
16906;SDS011;8570;52.380;4.654;2023-04-10T09:17:21;8.73;;;7.80;;
16906;SDS011;8570;52.380;4.654;2023-04-10T09:22:32;8.38;;;7.38;;
16906;SDS011;8570;52.380;4.654;2023-04-10T09:27:36;9.20;;;7.78;;
16906;SDS011;8570;52.380;4.654;2023-04-10T09:32:40;8.13;;;7.07;;
16906;SDS011;8570;52.380;4.654;2023-04-10T09:37:44;8.60;;;7.45;;
16906;SDS011;8570;52.380;4.654;2023-04-10T09:42:48;8.68;;;7.70;;
16906;SDS011;8570;52.380;4.654;2023-04-10T09:48:01;8.82;;;7.72;;
16906;SDS011;8570;52.380;4.654;2023-04-10T09:53:05;9.07;;;8.18;;
16906;SDS011;8570;52.380;4.654;2023-04-10T09:58:10;9.27;;;7.68;;
16906;SDS011;8570;52.380;4.654;2023-04-10T10:03:13;8.85;;;7.95;;
16906;SDS011;8570;52.380;4.654;2023-04-10T10:08:17;8.32;;;7.53;;
16906;SDS011;8570;52.380;4.654;2023-04-10T10:13:21;9.13;;;8.10;;
16906;SDS011;8570;52.380;4.654;2023-04-10T10:18:26;14.70;;;7.55;;
16906;SDS011;8570;52.380;4.654;2023-04-10T10:23:36;10.00;;;8.52;;
16906;SDS011;8570;52.380;4.654;2023-04-10T10:28:41;11.18;;;8.68;;
16906;SDS011;8570;52.380;4.654;2023-04-10T10:33:45;10.73;;;9.63;;
16906;SDS011;8570;52.380;4.654;2023-04-10T10:38:56;12.40;;;9.93;;
16906;SDS011;8570;52.380;4.654;2023-04-10T10:44:07;14.23;;;11.38;;
16906;SDS011;8570;52.380;4.654;2023-04-10T10:49:12;17.55;;;12.80;;
16906;SDS011;8570;52.380;4.654;2023-04-10T10:54:28;15.82;;;12.70;;
16906;SDS011;8570;52.380;4.654;2023-04-10T11:04:58;12.77;;;10.73;;
16906;SDS011;8570;52.380;4.654;2023-04-10T11:10:01;13.60;;;10.70;;
16906;SDS011;8570;52.380;4.654;2023-04-10T11:15:03;14.32;;;11.63;;
16906;SDS011;8570;52.380;4.654;2023-04-10T11:20:07;15.15;;;11.43;;
16906;SDS011;8570;52.380;4.654;2023-04-10T11:25:11;14.90;;;12.55;;
16906;SDS011;8570;52.380;4.654;2023-04-10T11:30:25;17.38;;;13.48;;
16906;SDS011;8570;52.380;4.654;2023-04-10T11:35:35;14.70;;;12.05;;
16906;SDS011;8570;52.380;4.654;2023-04-10T11:46:07;15.00;;;10.95;;
16906;SDS011;8570;52.380;4.654;2023-04-10T11:51:09;13.02;;;10.85;;
16906;SDS011;8570;52.380;4.654;2023-04-10T11:56:16;14.65;;;11.35;;
16906;SDS011;8570;52.380;4.654;2023-04-10T12:01:21;15.82;;;11.18;;
16906;SDS011;8570;52.380;4.654;2023-04-10T12:06:24;11.57;;;9.32;;
16906;SDS011;8570;52.380;4.654;2023-04-10T12:11:26;11.00;;;9.57;;
16906;SDS011;8570;52.380;4.654;2023-04-10T12:16:32;17.15;;;9.70;;
16906;SDS011;8570;52.380;4.654;2023-04-10T12:21:35;10.55;;;8.55;;
16906;SDS011;8570;52.380;4.654;2023-04-10T12:26:45;9.25;;;7.35;;
16906;SDS011;8570;52.380;4.654;2023-04-10T12:31:50;8.38;;;6.97;;
16906;SDS011;8570;52.380;4.654;2023-04-10T12:36:52;8.05;;;7.25;;
16906;SDS011;8570;52.380;4.654;2023-04-10T12:42:09;8.20;;;7.40;;
16906;SDS011;8570;52.380;4.654;2023-04-10T12:47:13;8.50;;;7.43;;
16906;SDS011;8570;52.380;4.654;2023-04-10T12:52:20;10.32;;;7.43;;
16906;SDS011;8570;52.380;4.654;2023-04-10T12:57:24;9.38;;;7.63;;
16906;SDS011;8570;52.380;4.654;2023-04-10T13:02:28;10.18;;;8.23;;
16906;SDS011;8570;52.380;4.654;2023-04-10T13:07:30;10.02;;;7.20;;
16906;SDS011;8570;52.380;4.654;2023-04-10T13:12:33;10.52;;;8.23;;
16906;SDS011;8570;52.380;4.654;2023-04-10T13:17:41;11.65;;;7.88;;
16906;SDS011;8570;52.380;4.654;2023-04-10T13:22:43;12.77;;;8.40;;
16906;SDS011;8570;52.380;4.654;2023-04-10T13:27:45;9.93;;;8.93;;
16906;SDS011;8570;52.380;4.654;2023-04-10T13:32:48;9.00;;;8.07;;
16906;SDS011;8570;52.380;4.654;2023-04-10T13:37:54;9.05;;;7.85;;
16906;SDS011;8570;52.380;4.654;2023-04-10T13:43:16;12.30;;;8.10;;
16906;SDS011;8570;52.380;4.654;2023-04-10T13:48:20;10.68;;;8.32;;
16906;SDS011;8570;52.380;4.654;2023-04-10T13:53:22;12.38;;;8.10;;
16906;SDS011;8570;52.380;4.654;2023-04-10T13:58:24;10.85;;;8.00;;
16906;SDS011;8570;52.380;4.654;2023-04-10T14:03:31;10.05;;;8.38;;
16906;SDS011;8570;52.380;4.654;2023-04-10T14:08:33;11.65;;;8.57;;
16906;SDS011;8570;52.380;4.654;2023-04-10T14:13:35;11.57;;;8.68;;
16906;SDS011;8570;52.380;4.654;2023-04-10T14:18:38;11.48;;;8.48;;
16906;SDS011;8570;52.380;4.654;2023-04-10T14:23:40;13.05;;;8.23;;
16906;SDS011;8570;52.380;4.654;2023-04-10T14:28:42;9.20;;;7.65;;
16906;SDS011;8570;52.380;4.654;2023-04-10T14:33:46;9.75;;;7.53;;
16906;SDS011;8570;52.380;4.654;2023-04-10T14:38:48;10.15;;;7.60;;
16906;SDS011;8570;52.380;4.654;2023-04-10T14:43:57;8.35;;;6.68;;
16906;SDS011;8570;52.380;4.654;2023-04-10T14:49:00;8.25;;;6.90;;
16906;SDS011;8570;52.380;4.654;2023-04-10T14:54:02;9.27;;;6.88;;
16906;SDS011;8570;52.380;4.654;2023-04-10T14:59:05;8.13;;;6.63;;
16906;SDS011;8570;52.380;4.654;2023-04-10T15:04:12;10.32;;;6.85;;
16906;SDS011;8570;52.380;4.654;2023-04-10T15:09:14;9.20;;;6.97;;
16906;SDS011;8570;52.380;4.654;2023-04-10T15:14:16;8.88;;;6.43;;
16906;SDS011;8570;52.380;4.654;2023-04-10T15:19:19;11.18;;;7.40;;
16906;SDS011;8570;52.380;4.654;2023-04-10T15:24:21;7.10;;;6.40;;
16906;SDS011;8570;52.380;4.654;2023-04-10T15:29:23;9.95;;;7.63;;
16906;SDS011;8570;52.380;4.654;2023-04-10T15:34:27;8.55;;;7.20;;
16906;SDS011;8570;52.380;4.654;2023-04-10T15:39:28;10.32;;;7.72;;
16906;SDS011;8570;52.380;4.654;2023-04-10T15:44:30;8.68;;;7.78;;
16906;SDS011;8570;52.380;4.654;2023-04-10T15:49:34;11.27;;;8.48;;
16906;SDS011;8570;52.380;4.654;2023-04-10T15:54:37;9.02;;;7.88;;
16906;SDS011;8570;52.380;4.654;2023-04-10T15:59:39;8.38;;;7.47;;
16906;SDS011;8570;52.380;4.654;2023-04-10T16:04:42;9.10;;;7.03;;
16906;SDS011;8570;52.380;4.654;2023-04-10T16:09:44;8.05;;;7.05;;
16906;SDS011;8570;52.380;4.654;2023-04-10T16:14:46;9.38;;;7.55;;
16906;SDS011;8570;52.380;4.654;2023-04-10T16:19:49;9.68;;;8.23;;
16906;SDS011;8570;52.380;4.654;2023-04-10T16:24:53;10.88;;;8.48;;
16906;SDS011;8570;52.380;4.654;2023-04-10T16:29:55;7.97;;;6.68;;
16906;SDS011;8570;52.380;4.654;2023-04-10T16:34:59;8.20;;;7.10;;
16906;SDS011;8570;52.380;4.654;2023-04-10T16:40:01;9.63;;;7.35;;
16906;SDS011;8570;52.380;4.654;2023-04-10T16:45:03;7.75;;;6.93;;
16906;SDS011;8570;52.380;4.654;2023-04-10T16:50:09;7.05;;;5.90;;
16906;SDS011;8570;52.380;4.654;2023-04-10T16:55:11;10.25;;;5.47;;
16906;SDS011;8570;52.380;4.654;2023-04-10T17:00:13;6.70;;;5.20;;
16906;SDS011;8570;52.380;4.654;2023-04-10T17:05:17;5.60;;;4.43;;
16906;SDS011;8570;52.380;4.654;2023-04-10T17:10:19;4.88;;;3.55;;
16906;SDS011;8570;52.380;4.654;2023-04-10T17:15:23;6.65;;;4.05;;
16906;SDS011;8570;52.380;4.654;2023-04-10T17:20:29;5.25;;;3.97;;
16906;SDS011;8570;52.380;4.654;2023-04-10T17:25:31;6.38;;;4.97;;
16906;SDS011;8570;52.380;4.654;2023-04-10T17:30:33;7.20;;;4.13;;
16906;SDS011;8570;52.380;4.654;2023-04-10T17:35:36;8.48;;;4.78;;
16906;SDS011;8570;52.380;4.654;2023-04-10T17:40:38;7.18;;;4.00;;
16906;SDS011;8570;52.380;4.654;2023-04-10T17:45:41;8.48;;;4.07;;
16906;SDS011;8570;52.380;4.654;2023-04-10T17:50:44;9.25;;;4.28;;
16906;SDS011;8570;52.380;4.654;2023-04-10T17:55:47;9.93;;;4.38;;
16906;SDS011;8570;52.380;4.654;2023-04-10T18:00:49;6.72;;;4.03;;
16906;SDS011;8570;52.380;4.654;2023-04-10T18:05:52;8.43;;;4.05;;
16906;SDS011;8570;52.380;4.654;2023-04-10T18:10:54;9.50;;;4.00;;
16906;SDS011;8570;52.380;4.654;2023-04-10T18:15:57;12.50;;;3.63;;
16906;SDS011;8570;52.380;4.654;2023-04-10T18:21:02;7.20;;;3.65;;
16906;SDS011;8570;52.380;4.654;2023-04-10T18:26:06;12.20;;;4.25;;
16906;SDS011;8570;52.380;4.654;2023-04-10T18:31:08;10.40;;;3.72;;
16906;SDS011;8570;52.380;4.654;2023-04-10T18:36:14;7.93;;;3.78;;
16906;SDS011;8570;52.380;4.654;2023-04-10T18:41:19;10.73;;;3.63;;
16906;SDS011;8570;52.380;4.654;2023-04-10T18:46:22;11.48;;;3.75;;
16906;SDS011;8570;52.380;4.654;2023-04-10T18:51:28;12.07;;;3.78;;
16906;SDS011;8570;52.380;4.654;2023-04-10T18:56:32;15.80;;;4.40;;
16906;SDS011;8570;52.380;4.654;2023-04-10T19:01:34;11.00;;;3.08;;
16906;SDS011;8570;52.380;4.654;2023-04-10T19:06:39;12.43;;;4.03;;
16906;SDS011;8570;52.380;4.654;2023-04-10T19:11:42;19.67;;;4.25;;
16906;SDS011;8570;52.380;4.654;2023-04-10T19:16:44;15.80;;;4.05;;
16906;SDS011;8570;52.380;4.654;2023-04-10T19:21:48;14.27;;;4.07;;
16906;SDS011;8570;52.380;4.654;2023-04-10T19:26:50;11.40;;;3.95;;
16906;SDS011;8570;52.380;4.654;2023-04-10T19:31:52;14.55;;;4.05;;
16906;SDS011;8570;52.380;4.654;2023-04-10T19:36:57;20.88;;;4.30;;
16906;SDS011;8570;52.380;4.654;2023-04-10T19:41:59;15.57;;;4.30;;
16906;SDS011;8570;52.380;4.654;2023-04-10T19:47:02;15.55;;;4.43;;
16906;SDS011;8570;52.380;4.654;2023-04-10T19:52:06;13.85;;;4.03;;
16906;SDS011;8570;52.380;4.654;2023-04-10T19:57:08;15.15;;;4.00;;
16906;SDS011;8570;52.380;4.654;2023-04-10T20:02:11;18.45;;;4.95;;
16906;SDS011;8570;52.380;4.654;2023-04-10T20:07:17;16.75;;;5.18;;
16906;SDS011;8570;52.380;4.654;2023-04-10T20:12:19;24.05;;;5.63;;
16906;SDS011;8570;52.380;4.654;2023-04-10T20:17:21;21.08;;;4.45;;
16906;SDS011;8570;52.380;4.654;2023-04-10T20:22:24;15.40;;;4.50;;
16906;SDS011;8570;52.380;4.654;2023-04-10T20:27:26;21.27;;;5.05;;
16906;SDS011;8570;52.380;4.654;2023-04-10T20:32:28;24.60;;;5.30;;
16906;SDS011;8570;52.380;4.654;2023-04-10T20:37:31;24.83;;;5.13;;
16906;SDS011;8570;52.380;4.654;2023-04-10T20:42:33;19.05;;;5.07;;
16906;SDS011;8570;52.380;4.654;2023-04-10T20:47:35;26.38;;;5.75;;
16906;SDS011;8570;52.380;4.654;2023-04-10T20:52:39;25.02;;;5.82;;
16906;SDS011;8570;52.380;4.654;2023-04-10T20:57:44;26.73;;;6.25;;
16906;SDS011;8570;52.380;4.654;2023-04-10T21:02:46;27.08;;;6.20;;
16906;SDS011;8570;52.380;4.654;2023-04-10T21:07:49;36.22;;;7.25;;
16906;SDS011;8570;52.380;4.654;2023-04-10T21:12:53;37.83;;;7.45;;
16906;SDS011;8570;52.380;4.654;2023-04-10T21:17:55;42.55;;;7.45;;
16906;SDS011;8570;52.380;4.654;2023-04-10T21:22:58;41.13;;;8.50;;
16906;SDS011;8570;52.380;4.654;2023-04-10T21:28:00;37.08;;;7.90;;
16906;SDS011;8570;52.380;4.654;2023-04-10T21:33:05;47.70;;;7.97;;
16906;SDS011;8570;52.380;4.654;2023-04-10T21:38:08;43.08;;;8.45;;
16906;SDS011;8570;52.380;4.654;2023-04-10T21:43:10;43.53;;;8.02;;
16906;SDS011;8570;52.380;4.654;2023-04-10T21:48:12;49.78;;;7.97;;
16906;SDS011;8570;52.380;4.654;2023-04-10T21:53:15;51.33;;;8.00;;
16906;SDS011;8570;52.380;4.654;2023-04-10T21:58:18;42.67;;;7.10;;
16906;SDS011;8570;52.380;4.654;2023-04-10T22:03:19;24.67;;;3.97;;
16906;SDS011;8570;52.380;4.654;2023-04-10T22:08:24;12.20;;;2.70;;
16906;SDS011;8570;52.380;4.654;2023-04-10T22:13:26;11.93;;;2.77;;
16906;SDS011;8570;52.380;4.654;2023-04-10T22:18:28;9.87;;;2.27;;
16906;SDS011;8570;52.380;4.654;2023-04-10T22:23:31;8.83;;;2.10;;
16906;SDS011;8570;52.380;4.654;2023-04-10T22:28:33;10.30;;;2.10;;
16906;SDS011;8570;52.380;4.654;2023-04-10T22:33:35;16.90;;;2.80;;
16906;SDS011;8570;52.380;4.654;2023-04-10T22:38:39;13.53;;;3.00;;
16906;SDS011;8570;52.380;4.654;2023-04-10T22:43:40;14.53;;;3.20;;
16906;SDS011;8570;52.380;4.654;2023-04-10T22:48:42;17.73;;;3.53;;
16906;SDS011;8570;52.380;4.654;2023-04-10T22:53:46;12.93;;;3.20;;
16906;SDS011;8570;52.380;4.654;2023-04-10T22:58:48;19.97;;;4.20;;
16906;SDS011;8570;52.380;4.654;2023-04-10T23:03:50;20.30;;;3.60;;
16906;SDS011;8570;52.380;4.654;2023-04-10T23:08:54;21.37;;;3.97;;
16906;SDS011;8570;52.380;4.654;2023-04-10T23:13:56;22.17;;;4.23;;
16906;SDS011;8570;52.380;4.654;2023-04-10T23:18:57;23.70;;;4.53;;
16906;SDS011;8570;52.380;4.654;2023-04-10T23:24:01;23.03;;;4.33;;
16906;SDS011;8570;52.380;4.654;2023-04-10T23:29:03;16.50;;;3.43;;
16906;SDS011;8570;52.380;4.654;2023-04-10T23:34:05;19.47;;;4.00;;
16906;SDS011;8570;52.380;4.654;2023-04-10T23:39:08;20.07;;;3.47;;
16906;SDS011;8570;52.380;4.654;2023-04-10T23:44:10;22.07;;;4.03;;
16906;SDS011;8570;52.380;4.654;2023-04-10T23:49:12;15.90;;;4.07;;
16906;SDS011;8570;52.380;4.654;2023-04-10T23:54:15;20.53;;;4.33;;
16906;SDS011;8570;52.380;4.654;2023-04-10T23:59:17;22.77;;;4.50;;
